Terminal Aerodrome Forecast
Issued by NWS

Current Version | Previous Version | Graphics & Text | Print | Product List | Glossary On
Versions: 1 2 3 4 5 6 7 8 9 10 11 12 13 14 15 16 17 18 19 20
000
FTUS41 KPBZ 210403 AAB
TAFMGW
TAF AMD
KMGW 210403Z 2104/2124 00000KT P6SM SKC
     FM210500 00000KT 3SM BR SKC
     FM210600 00000KT 1SM BR SCT003
     FM210700 00000KT 1/2SM FG VV003
     FM211330 VRB03KT P6SM SCT040=

USA.gov is the U.S. government's official web portal to all federal, state and local government web resources and services.